createdAt,value
2022-08-07T00:00:40.021Z,45.37
2022-08-07T00:02:44.418Z,45.73
2022-08-07T00:04:46.532Z,45.61
2022-08-07T00:06:51.620Z,45.71
2022-08-07T00:08:54.385Z,46.03
2022-08-07T00:10:57.435Z,45.79
2022-08-07T00:13:23.946Z,45.63
2022-08-07T00:15:25.876Z,45.72
2022-08-07T00:17:40.541Z,45.87
2022-08-07T00:20:00.447Z,45.53
2022-08-07T00:22:04.775Z,45.62
2022-08-07T00:24:06.916Z,45.78
2022-08-07T00:26:13.008Z,45.73
2022-08-07T00:28:21.955Z,45.77
2022-08-07T00:30:26.958Z,45.64
2022-08-07T00:32:30.080Z,45.75
2022-08-07T00:34:36.774Z,45.92
2022-08-07T00:36:43.178Z,46.44
2022-08-07T00:38:45.388Z,46.46
2022-08-07T00:40:47.550Z,46.94
2022-08-07T00:42:50.340Z,46.92
2022-08-07T00:44:54.755Z,46.77
2022-08-07T00:46:56.755Z,46.83
2022-08-07T00:49:02.139Z,46.81
2022-08-07T00:51:05.560Z,46.86
2022-08-07T00:53:09.246Z,47.13
2022-08-07T00:55:12.896Z,47.21
2022-08-07T00:57:19.791Z,47.04
2022-08-07T00:59:35.354Z,47.14
2022-08-07T01:01:44.146Z,47.17
2022-08-07T01:03:57.349Z,46.94
2022-08-07T01:06:03.312Z,46.65
2022-08-07T01:08:06.162Z,46.98
2022-08-07T01:10:12.557Z,47.31
2022-08-07T01:12:29.092Z,47.09
2022-08-07T01:14:32.352Z,48.11
2022-08-07T01:16:43.066Z,48.74
2022-08-07T01:18:48.769Z,49.04
2022-08-07T01:21:22.474Z,50.08
2022-08-07T01:23:38.089Z,50.36
2022-08-07T01:25:56.197Z,51.30
2022-08-07T01:27:58.568Z,52.34
2022-08-07T01:30:02.329Z,51.69
2022-08-07T01:32:12.357Z,51.50
2022-08-07T01:34:18.953Z,51.77
2022-08-07T01:36:21.495Z,51.51
2022-08-07T01:38:35.687Z,50.89
2022-08-07T01:40:38.740Z,50.44
2022-08-07T01:42:56.952Z,50.17
2022-08-07T01:45:00.912Z,50.01
2022-08-07T01:47:14.302Z,49.69
2022-08-07T01:49:16.483Z,49.36
2022-08-07T01:52:03.731Z,49.35
2022-08-07T01:54:09.229Z,49.36
2022-08-07T01:56:38.794Z,49.38
2022-08-07T01:58:45.466Z,50.07
2022-08-07T02:00:50.873Z,50.03
2022-08-07T02:03:18.553Z,50.83
2022-08-07T02:05:43.233Z,51.42
2022-08-07T02:07:52.892Z,51.89
2022-08-07T02:09:58.666Z,51.76
2022-08-07T02:12:17.660Z,51.23
2022-08-07T02:14:40.357Z,51.83
2022-08-07T02:16:42.631Z,52.37
2022-08-07T02:18:47.321Z,51.32
2022-08-07T02:20:51.950Z,52.25
2022-08-07T02:23:01.898Z,52.00
2022-08-07T02:25:07.207Z,54.39
2022-08-07T02:27:19.419Z,53.90
2022-08-07T02:29:21.854Z,53.63
2022-08-07T02:31:28.687Z,53.84
2022-08-07T02:33:42.286Z,54.23
2022-08-07T02:36:30.487Z,54.60
2022-08-07T02:38:17.183Z,54.88
2022-08-07T02:40:30.742Z,55.11
2022-08-07T02:42:37.587Z,55.34
2022-08-07T02:44:48.076Z,55.99
2022-08-07T02:46:53.052Z,56.50
2022-08-07T02:48:55.435Z,56.67
2022-08-07T02:50:58.036Z,56.58
2022-08-07T02:53:06.129Z,56.41
2022-08-07T02:55:28.297Z,56.69
2022-08-07T02:57:46.752Z,56.86
2022-08-07T02:59:54.879Z,56.91
2022-08-07T03:01:57.884Z,57.20
2022-08-07T03:04:06.907Z,57.39
2022-08-07T03:06:16.653Z,57.43
2022-08-07T03:08:29.255Z,57.36
2022-08-07T03:10:31.947Z,57.52
2022-08-07T03:12:34.739Z,57.79
2022-08-07T03:14:40.027Z,57.85
2022-08-07T03:16:42.909Z,58.30
2022-08-07T03:18:44.656Z,58.10
2022-08-07T03:20:49.995Z,58.16
2022-08-07T03:22:55.319Z,59.00
2022-08-07T03:24:57.387Z,59.39
2022-08-07T03:27:04.334Z,59.84
2022-08-07T03:29:10.545Z,60.35
2022-08-07T03:31:19.358Z,60.94
2022-08-07T03:33:27.231Z,61.49
2022-08-07T03:35:37.921Z,61.96
2022-08-07T03:37:54.096Z,62.25
2022-08-07T03:39:59.582Z,62.04
2022-08-07T03:42:20.013Z,62.56
2022-08-07T03:44:34.485Z,62.87
2022-08-07T03:47:10.886Z,64.12
2022-08-07T03:49:02.892Z,63.92
2022-08-07T03:51:05.506Z,64.09
2022-08-07T03:53:12.344Z,64.17
2022-08-07T03:55:14.792Z,63.61
2022-08-07T03:58:33.954Z,63.93
2022-08-07T03:59:46.804Z,63.61
2022-08-07T04:02:03.234Z,62.89
2022-08-07T04:04:05.601Z,62.51
2022-08-07T04:06:36.121Z,61.75
2022-08-07T04:08:34.217Z,61.04
2022-08-07T04:10:38.822Z,60.95
2022-08-07T04:12:41.571Z,61.05
2022-08-07T04:14:46.297Z,60.38
2022-08-07T04:16:58.146Z,59.73
2022-08-07T04:19:12.431Z,59.43
2022-08-07T04:21:17.037Z,59.24
2022-08-07T04:23:20.926Z,58.77
2022-08-07T04:25:24.058Z,58.72
2022-08-07T04:27:35.694Z,57.84
2022-08-07T04:29:58.862Z,57.85
2022-08-07T04:32:09.884Z,58.32
2022-08-07T04:34:16.482Z,58.34
2022-08-07T04:36:26.013Z,57.78
2022-08-07T04:38:28.314Z,58.18
2022-08-07T04:40:32.246Z,58.08
2022-08-07T04:42:34.619Z,58.09
2022-08-07T04:44:37.665Z,58.21
2022-08-07T04:47:08.478Z,58.73
2022-08-07T04:49:47.486Z,59.27
2022-08-07T04:52:06.095Z,59.29
2022-08-07T04:54:29.968Z,58.88
2022-08-07T04:58:16.567Z,59.00
2022-08-07T05:00:11.397Z,58.03
2022-08-07T05:02:26.435Z,58.04
2022-08-07T05:04:57.437Z,57.89
2022-08-07T05:07:20.273Z,57.71
2022-08-07T05:10:07.876Z,57.98
2022-08-07T05:12:26.746Z,57.55
2022-08-07T05:14:51.942Z,57.01
2022-08-07T05:17:01.116Z,56.89
2022-08-07T05:19:12.756Z,56.37
2022-08-07T05:21:14.909Z,56.02
2022-08-07T05:23:29.102Z,55.62
2022-08-07T05:25:54.468Z,56.10
2022-08-07T05:28:15.928Z,55.96
2022-08-07T05:30:29.978Z,56.02
2022-08-07T05:32:32.807Z,55.63
2022-08-07T05:34:37.183Z,55.40
2022-08-07T05:36:40.887Z,55.02
2022-08-07T05:38:59.823Z,54.83
2022-08-07T05:41:12.090Z,54.09
2022-08-07T05:43:17.076Z,53.97
2022-08-07T05:45:47.037Z,53.61
2022-08-07T05:48:01.218Z,53.62
2022-08-07T05:50:05.847Z,54.55
2022-08-07T05:52:08.586Z,54.79
2022-08-07T05:54:44.642Z,54.46
2022-08-07T05:56:37.476Z,54.27
2022-08-07T05:58:49.278Z,53.94
2022-08-07T06:03:15.552Z,52.67
2022-08-07T06:05:19.745Z,53.87
2022-08-07T06:08:09.061Z,54.21
2022-08-07T06:10:05.011Z,53.69
2022-08-07T06:12:08.642Z,52.99
2022-08-07T06:14:20.811Z,52.48
2022-08-07T06:16:23.821Z,53.48
2022-08-07T06:18:32.721Z,53.40
2022-08-07T06:20:50.521Z,52.93
2022-08-07T06:23:25.116Z,52.56
2022-08-07T06:25:22.851Z,51.66
2022-08-07T06:27:43.768Z,52.25
2022-08-07T06:29:47.868Z,51.71
2022-08-07T06:31:51.938Z,50.89
2022-08-07T06:33:54.727Z,50.24
2022-08-07T06:36:06.655Z,50.70
2022-08-07T06:38:19.953Z,51.40
2022-08-07T06:40:23.145Z,51.19
2022-08-07T06:42:37.615Z,50.18
2022-08-07T06:44:39.769Z,49.60
2022-08-07T06:46:41.905Z,49.89
2022-08-07T06:48:44.921Z,50.23
2022-08-07T06:50:48.567Z,50.19
2022-08-07T06:52:53.899Z,50.08
2022-08-07T06:55:33.424Z,50.98
2022-08-07T06:57:21.121Z,51.00
2022-08-07T07:00:14.999Z,50.75
2022-08-07T07:02:06.215Z,50.24
2022-08-07T07:04:28.656Z,49.21
2022-08-07T07:06:32.681Z,48.48
2022-08-07T07:08:46.811Z,48.51
2022-08-07T07:10:54.873Z,47.90
2022-08-07T07:13:15.456Z,47.60
2022-08-07T07:15:32.540Z,47.54
2022-08-07T07:17:50.576Z,47.35
2022-08-07T07:19:59.123Z,46.99
2022-08-07T07:22:04.824Z,48.80
2022-08-07T07:24:17.201Z,48.14
2022-08-07T07:26:34.473Z,47.29
2022-08-07T07:29:28.522Z,46.96
2022-08-07T07:31:44.660Z,47.66
2022-08-07T07:33:56.904Z,47.40
2022-08-07T07:36:05.543Z,47.33
2022-08-07T07:38:15.686Z,47.29
2022-08-07T07:40:19.081Z,46.95
2022-08-07T07:42:20.820Z,46.51
2022-08-07T07:44:26.111Z,45.57
2022-08-07T07:46:36.533Z,44.72
2022-08-07T07:48:59.947Z,44.82
2022-08-07T07:51:11.055Z,44.88
2022-08-07T07:53:22.980Z,45.24
2022-08-07T07:55:37.711Z,45.76
2022-08-07T07:57:53.245Z,44.37
2022-08-07T07:59:56.479Z,45.46
2022-08-07T08:02:10.234Z,45.50
2022-08-07T08:04:13.294Z,44.88
2022-08-07T08:06:16.352Z,44.64
2022-08-07T08:08:36.322Z,44.14
2022-08-07T08:10:39.934Z,44.41
2022-08-07T08:12:59.219Z,44.57
2022-08-07T08:15:06.872Z,44.01
2022-08-07T08:17:32.443Z,43.97
2022-08-07T08:20:19.716Z,44.30
2022-08-07T08:22:16.095Z,44.00
2022-08-07T08:24:45.340Z,44.12
2022-08-07T08:27:09.322Z,43.30
2022-08-07T08:29:12.830Z,43.45
2022-08-07T08:31:59.179Z,42.44
2022-08-07T08:33:49.453Z,42.42
2022-08-07T08:35:55.874Z,42.52
2022-08-07T08:38:03.171Z,42.46
2022-08-07T08:40:12.348Z,42.75
2022-08-07T08:42:34.265Z,42.29
2022-08-07T08:44:44.946Z,42.48
2022-08-07T08:47:06.049Z,42.36
2022-08-07T08:49:19.214Z,42.24
2022-08-07T08:51:49.767Z,41.97
2022-08-07T08:54:20.403Z,42.18
2022-08-07T08:56:47.358Z,41.67
2022-08-07T08:58:54.507Z,41.84
2022-08-07T09:01:15.962Z,42.17
2022-08-07T09:03:20.622Z,42.11
2022-08-07T09:05:49.086Z,42.21
2022-08-07T09:08:09.022Z,41.03
2022-08-07T09:10:17.572Z,40.64
2022-08-07T09:12:32.250Z,40.89
2022-08-07T09:14:50.755Z,41.70
2022-08-07T09:17:18.296Z,41.64
2022-08-07T09:19:51.963Z,40.75
2022-08-07T09:22:23.006Z,40.73
2022-08-07T09:25:12.014Z,40.78
2022-08-07T09:27:54.621Z,41.97
2022-08-07T09:30:05.361Z,41.15
2022-08-07T09:32:23.527Z,40.96
2022-08-07T09:34:58.447Z,40.43
2022-08-07T09:37:20.994Z,40.78
2022-08-07T09:39:58.174Z,40.11
2022-08-07T09:42:32.940Z,39.63
2022-08-07T09:47:49.423Z,39.86
2022-08-07T09:48:06.338Z,39.92
2022-08-07T09:50:53.504Z,39.15
2022-08-07T09:53:01.100Z,39.83
2022-08-07T09:56:03.122Z,39.13
2022-08-07T09:58:32.168Z,38.86
2022-08-07T10:00:54.120Z,38.17
2022-08-07T10:04:02.884Z,37.89
2022-08-07T10:05:59.177Z,38.03
2022-08-07T10:08:26.643Z,37.91
2022-08-07T10:11:07.763Z,39.24
2022-08-07T10:14:00.220Z,38.80
2022-08-07T10:16:00.684Z,38.83
2022-08-07T10:18:18.306Z,38.39
2022-08-07T10:20:50.185Z,38.23
2022-08-07T10:23:14.123Z,39.02
2022-08-07T10:25:54.155Z,39.00
2022-08-07T10:28:26.902Z,39.64
2022-08-07T10:30:58.885Z,40.37
2022-08-07T10:34:05.600Z,40.29
2022-08-07T10:36:12.713Z,40.95
2022-08-07T10:38:42.218Z,41.37
2022-08-07T10:41:08.896Z,41.08
2022-08-07T10:43:34.479Z,40.95
2022-08-07T10:45:58.407Z,41.26
2022-08-07T10:48:34.875Z,41.66
2022-08-07T10:50:50.336Z,41.43
2022-08-07T10:53:09.057Z,41.40
2022-08-07T10:55:38.650Z,41.38
2022-08-07T10:58:05.844Z,41.62
2022-08-07T11:00:42.802Z,42.15
2022-08-07T11:03:11.331Z,42.75
2022-08-07T11:05:49.129Z,42.83
2022-08-07T11:08:11.777Z,43.00
2022-08-07T11:10:20.350Z,42.55
2022-08-07T11:12:31.628Z,42.25
2022-08-07T11:14:45.764Z,42.08
2022-08-07T11:17:43.327Z,42.08
2022-08-07T11:19:57.885Z,40.89
2022-08-07T11:22:06.535Z,40.52
2022-08-07T11:24:30.740Z,40.64
2022-08-07T11:27:33.693Z,39.94
2022-08-07T11:30:18.673Z,40.36
2022-08-07T11:32:35.690Z,39.61
2022-08-07T11:34:52.012Z,39.49
2022-08-07T11:37:04.994Z,38.82
2022-08-07T11:39:39.716Z,40.57
2022-08-07T11:42:18.826Z,40.35
2022-08-07T11:44:33.243Z,41.09
2022-08-07T11:47:07.067Z,42.02
2022-08-07T11:50:11.507Z,42.81
2022-08-07T11:52:46.949Z,42.61
2022-08-07T11:56:24.928Z,42.65
2022-08-07T11:58:01.605Z,43.28
2022-08-07T12:00:19.032Z,43.97
2022-08-07T12:02:52.125Z,43.86
2022-08-07T12:05:28.654Z,43.03
2022-08-07T12:07:53.432Z,42.60
2022-08-07T12:10:10.258Z,42.34
2022-08-07T12:12:19.212Z,41.98
2022-08-07T12:14:23.889Z,42.04
2022-08-07T12:16:35.400Z,42.23
2022-08-07T12:19:06.748Z,43.08
2022-08-07T12:22:36.191Z,42.66
2022-08-07T12:24:06.828Z,42.83
2022-08-07T12:26:30.037Z,43.45
2022-08-07T12:28:55.600Z,43.79
2022-08-07T12:31:04.099Z,44.00
2022-08-07T12:33:18.681Z,43.56
2022-08-07T12:35:26.821Z,43.51
2022-08-07T12:38:09.739Z,44.12
2022-08-07T12:39:57.523Z,43.84
2022-08-07T12:42:00.108Z,44.26
2022-08-07T12:44:13.102Z,44.39
2022-08-07T12:46:46.149Z,43.65
2022-08-07T12:49:10.020Z,43.47
2022-08-07T12:51:33.390Z,42.09
2022-08-07T12:54:37.180Z,41.34
2022-08-07T12:56:51.227Z,41.48
2022-08-07T12:58:59.679Z,41.48
2022-08-07T13:01:32.616Z,41.08
2022-08-07T13:04:13.638Z,41.51
2022-08-07T13:07:06.850Z,41.42
2022-08-07T13:10:21.958Z,41.45
2022-08-07T13:12:02.712Z,41.37
2022-08-07T13:14:29.199Z,39.89
2022-08-07T13:16:38.587Z,39.89
2022-08-07T13:19:01.867Z,39.34
2022-08-07T13:21:15.224Z,38.70
2022-08-07T13:24:01.926Z,38.08
2022-08-07T13:26:16.057Z,39.07
2022-08-07T13:28:28.045Z,39.28
2022-08-07T13:30:41.343Z,38.86
2022-08-07T13:33:05.833Z,38.68
2022-08-07T13:36:00.584Z,39.10
2022-08-07T13:38:18.142Z,39.45
2022-08-07T13:40:36.819Z,38.96
2022-08-07T13:42:45.820Z,38.62
2022-08-07T13:45:11.462Z,38.42
2022-08-07T13:47:15.070Z,38.54
2022-08-07T13:50:32.540Z,38.17
2022-08-07T13:52:23.057Z,37.85
2022-08-07T13:54:08.075Z,37.44
2022-08-07T13:56:12.268Z,37.82
2022-08-07T13:58:34.496Z,38.04
2022-08-07T14:00:50.378Z,37.91
2022-08-07T14:02:58.746Z,36.88
2022-08-07T14:05:04.579Z,36.61
2022-08-07T14:07:09.557Z,35.83
2022-08-07T14:10:02.890Z,36.17
2022-08-07T14:12:00.974Z,35.68
2022-08-07T14:14:08.782Z,35.54
2022-08-07T14:16:16.124Z,35.72
2022-08-07T14:18:32.756Z,36.15
2022-08-07T14:20:44.570Z,35.93
2022-08-07T14:23:05.154Z,36.53
2022-08-07T14:25:13.334Z,36.67
2022-08-07T14:28:09.447Z,37.86
2022-08-07T14:30:11.106Z,38.06
2022-08-07T14:32:10.627Z,40.52
2022-08-07T14:34:20.521Z,41.14
2022-08-07T14:36:24.330Z,41.27
2022-08-07T14:38:33.438Z,41.19
2022-08-07T14:40:36.384Z,41.80
2022-08-07T14:43:00.882Z,41.74
2022-08-07T14:45:20.904Z,41.67
2022-08-07T14:47:25.194Z,41.33
2022-08-07T14:52:04.843Z,40.97
2022-08-07T14:56:40.821Z,40.54
2022-08-07T14:58:54.945Z,39.34
2022-08-07T15:01:22.375Z,39.55
2022-08-07T15:03:52.294Z,39.61
2022-08-07T15:05:54.863Z,39.23
2022-08-07T15:08:12.525Z,39.66
2022-08-07T15:10:26.878Z,39.44
2022-08-07T15:12:36.699Z,39.14
2022-08-07T15:17:32.676Z,39.43
2022-08-07T15:20:32.951Z,39.42
2022-08-07T15:22:31.052Z,38.89
2022-08-07T15:25:14.125Z,37.98
2022-08-07T15:27:19.745Z,37.01
2022-08-07T15:30:09.146Z,37.20
2022-08-07T15:31:58.088Z,36.47
2022-08-07T15:34:05.347Z,36.87
2022-08-07T15:36:13.972Z,37.55
2022-08-07T15:38:59.196Z,38.09
2022-08-07T15:41:23.713Z,37.96
2022-08-07T15:43:53.850Z,37.32
2022-08-07T15:45:56.587Z,36.46
2022-08-07T15:48:12.709Z,35.77
2022-08-07T15:52:39.926Z,35.22
2022-08-07T15:54:44.582Z,35.23
2022-08-07T15:56:49.962Z,34.81
2022-08-07T15:58:59.231Z,34.98
2022-08-07T16:01:03.527Z,34.65
2022-08-07T16:03:21.697Z,35.18
2022-08-07T16:05:46.389Z,34.95
2022-08-07T16:08:32.552Z,35.28
2022-08-07T16:10:26.765Z,35.50
2022-08-07T16:12:39.233Z,34.92
2022-08-07T16:15:07.478Z,35.32
2022-08-07T16:18:02.062Z,35.22
2022-08-07T16:20:37.733Z,35.34
2022-08-07T16:23:05.126Z,34.75
2022-08-07T16:25:52.513Z,35.73
2022-08-07T16:28:00.415Z,35.88
2022-08-07T16:30:32.058Z,36.22
2022-08-07T16:32:54.609Z,37.00
2022-08-07T16:35:50.331Z,37.07
2022-08-07T16:38:03.512Z,37.56
2022-08-07T16:40:28.371Z,38.08
2022-08-07T16:42:43.162Z,38.30
2022-08-07T16:46:21.341Z,38.25
2022-08-07T16:48:13.436Z,38.89
2022-08-07T16:50:37.026Z,38.88
2022-08-07T16:53:55.566Z,39.38
2022-08-07T16:55:47.004Z,45.41
2022-08-07T16:58:03.931Z,50.83
2022-08-07T17:00:15.075Z,52.04
2022-08-07T17:02:53.026Z,52.68
2022-08-07T17:06:19.975Z,53.67
2022-08-07T17:07:57.937Z,53.79
2022-08-07T17:10:09.254Z,53.29
2022-08-07T17:12:54.059Z,54.37
2022-08-07T17:15:08.763Z,55.24
2022-08-07T17:17:44.137Z,55.80
2022-08-07T17:20:00.912Z,56.18
2022-08-07T17:22:17.297Z,55.63
2022-08-07T17:24:55.793Z,55.17
2022-08-07T17:27:04.850Z,54.79
2022-08-07T17:30:12.878Z,54.01
2022-08-07T17:32:02.944Z,53.21
2022-08-07T17:34:35.462Z,52.65
2022-08-07T17:36:57.725Z,52.68
2022-08-07T17:39:10.472Z,52.15
2022-08-07T17:42:03.475Z,51.24
2022-08-07T17:44:50.099Z,50.59
2022-08-07T17:46:54.924Z,50.07
2022-08-07T17:49:22.894Z,49.79
2022-08-07T17:51:59.848Z,49.57
2022-08-07T17:54:11.649Z,49.02
2022-08-07T17:56:33.302Z,48.82
2022-08-07T17:58:59.834Z,48.87
2022-08-07T18:01:20.519Z,48.50
2022-08-07T18:04:04.379Z,48.36
2022-08-07T18:06:16.647Z,48.31
2022-08-07T18:08:33.620Z,47.93
2022-08-07T18:12:07.855Z,47.96
2022-08-07T18:13:40.572Z,47.62
2022-08-07T18:15:53.749Z,47.79
2022-08-07T18:18:46.500Z,48.14
2022-08-07T18:21:12.397Z,49.25
2022-08-07T18:22:58.045Z,49.97
2022-08-07T18:25:24.131Z,50.67
2022-08-07T18:27:52.670Z,50.83
2022-08-07T18:30:31.186Z,50.23
2022-08-07T18:32:31.636Z,50.33
2022-08-07T18:34:53.229Z,50.89
2022-08-07T18:38:55.110Z,51.57
2022-08-07T18:40:07.039Z,52.58
2022-08-07T18:42:16.367Z,53.10
2022-08-07T18:45:39.530Z,53.69
2022-08-07T18:47:22.493Z,54.32
2022-08-07T18:50:31.268Z,54.37
2022-08-07T18:52:34.873Z,55.20
2022-08-07T18:54:42.492Z,55.08
2022-08-07T18:56:58.378Z,55.19
2022-08-07T18:59:47.981Z,54.40
2022-08-07T19:02:17.944Z,54.86
2022-08-07T19:04:56.181Z,56.52
2022-08-07T19:07:21.120Z,56.73
2022-08-07T19:09:57.159Z,56.42
2022-08-07T19:12:20.390Z,56.09
2022-08-07T19:14:36.620Z,55.68
2022-08-07T19:17:08.063Z,55.61
2022-08-07T19:19:32.745Z,55.15
2022-08-07T19:21:56.263Z,55.05
2022-08-07T19:24:11.348Z,55.32
2022-08-07T19:28:28.642Z,54.99
2022-08-07T19:31:00.910Z,54.42
2022-08-07T19:32:02.306Z,54.32
2022-08-07T19:33:58.055Z,54.48
2022-08-07T19:36:08.896Z,54.21
2022-08-07T19:38:17.122Z,54.51
2022-08-07T19:40:31.846Z,55.17
2022-08-07T19:42:43.116Z,55.65
2022-08-07T19:44:45.743Z,55.80
2022-08-07T19:46:55.650Z,55.58
2022-08-07T19:49:06.178Z,55.21
2022-08-07T19:51:19.417Z,54.35
2022-08-07T19:54:31.809Z,53.75
2022-08-07T19:55:57.800Z,54.51
2022-08-07T19:58:14.189Z,54.51
2022-08-07T20:00:29.049Z,55.29
2022-08-07T20:02:52.105Z,55.01
2022-08-07T20:04:56.492Z,55.26
2022-08-07T20:06:58.566Z,55.35
2022-08-07T20:09:02.904Z,55.84
2022-08-07T20:11:15.164Z,55.90
2022-08-07T20:13:42.000Z,56.27
2022-08-07T20:15:44.543Z,56.37
2022-08-07T20:18:01.611Z,56.69
2022-08-07T20:20:07.817Z,56.62
2022-08-07T20:22:18.479Z,57.19
2022-08-07T20:24:33.023Z,57.07
2022-08-07T20:26:44.762Z,57.31
2022-08-07T20:28:51.392Z,57.70
2022-08-07T20:30:53.766Z,58.08
2022-08-07T20:32:58.252Z,58.09
2022-08-07T20:35:07.880Z,57.84
2022-08-07T20:37:10.894Z,57.96
2022-08-07T20:39:31.069Z,58.40
2022-08-07T20:41:52.502Z,58.43
2022-08-07T20:43:57.442Z,58.53
2022-08-07T20:46:27.697Z,58.99
2022-08-07T20:48:29.894Z,59.05
2022-08-07T20:50:33.496Z,59.36
2022-08-07T20:52:51.516Z,59.57
2022-08-07T20:54:55.468Z,59.50
2022-08-07T20:56:58.511Z,59.22
2022-08-07T20:59:06.556Z,58.80
2022-08-07T21:01:36.520Z,59.06
2022-08-07T21:04:13.371Z,58.63
2022-08-07T21:06:25.546Z,58.85
2022-08-07T21:08:40.899Z,58.71
2022-08-07T21:10:44.497Z,58.89
2022-08-07T21:12:48.887Z,59.00
2022-08-07T21:14:54.501Z,59.20
2022-08-07T21:18:01.819Z,59.14
2022-08-07T21:19:32.273Z,58.83
2022-08-07T21:21:57.070Z,58.79
2022-08-07T21:24:10.436Z,58.31
2022-08-07T21:26:37.079Z,58.38
2022-08-07T21:28:50.062Z,58.74
2022-08-07T21:31:03.419Z,58.78
2022-08-07T21:33:41.795Z,58.95
2022-08-07T21:36:06.033Z,58.74
2022-08-07T21:38:37.931Z,58.49
2022-08-07T21:41:12.664Z,58.57
2022-08-07T21:43:22.813Z,58.35
2022-08-07T21:46:10.705Z,58.31
2022-08-07T21:48:42.614Z,58.32
2022-08-07T21:50:58.089Z,58.37
2022-08-07T21:53:12.801Z,58.24
2022-08-07T21:55:29.962Z,58.43
2022-08-07T21:58:00.025Z,58.31
2022-08-07T22:00:22.834Z,58.63
2022-08-07T22:02:34.554Z,58.68
2022-08-07T22:04:53.830Z,58.77
2022-08-07T22:07:27.520Z,58.58
2022-08-07T22:09:54.451Z,58.45
2022-08-07T22:12:15.753Z,58.81
2022-08-07T22:14:34.923Z,58.76
2022-08-07T22:16:49.818Z,58.69
2022-08-07T22:19:07.549Z,58.72
2022-08-07T22:21:21.823Z,59.44
2022-08-07T22:23:44.944Z,61.76
2022-08-07T22:25:57.974Z,63.20
2022-08-07T22:28:29.957Z,64.05
2022-08-07T22:30:38.926Z,64.51
2022-08-07T22:32:56.371Z,64.53
2022-08-07T22:35:02.276Z,64.46
2022-08-07T22:38:03.155Z,63.60
2022-08-07T22:40:08.567Z,63.18
2022-08-07T22:42:25.510Z,62.74
2022-08-07T22:44:32.622Z,62.54
2022-08-07T22:47:08.666Z,62.77
2022-08-07T22:49:18.231Z,63.27
2022-08-07T22:52:00.609Z,63.73
2022-08-07T22:54:39.359Z,63.72
2022-08-07T22:57:02.788Z,64.26
2022-08-07T22:59:37.271Z,64.08
2022-08-07T23:01:49.804Z,63.38
2022-08-07T23:04:09.021Z,62.78
2022-08-07T23:06:18.922Z,62.33
2022-08-07T23:08:38.133Z,62.16
2022-08-07T23:11:13.258Z,61.89
2022-08-07T23:13:29.483Z,62.14
2022-08-07T23:16:07.181Z,61.92
2022-08-07T23:18:21.118Z,61.14
2022-08-07T23:20:40.510Z,61.35
2022-08-07T23:24:04.559Z,60.87
2022-08-07T23:26:06.463Z,60.38
2022-08-07T23:28:30.674Z,60.44
2022-08-07T23:31:06.446Z,59.79
2022-08-07T23:34:22.731Z,60.07
2022-08-07T23:36:29.216Z,59.56
2022-08-07T23:38:59.137Z,59.93
2022-08-07T23:41:33.087Z,59.59
2022-08-07T23:43:54.447Z,59.33
2022-08-07T23:46:43.012Z,59.52
2022-08-07T23:48:47.764Z,59.27
2022-08-07T23:52:57.089Z,59.39
2022-08-07T23:53:53.639Z,59.30
2022-08-07T23:56:11.806Z,58.99
2022-08-07T23:58:24.707Z,58.83
